Time;durP1;ratioP1;P1;durP2;ratioP2;P2;SDS_P1;SDS_P2;PMS_P1;PMS_P2;Temp;Humidity;BMP_temperature;BMP_pressure;BME280_temperature;BME280_humidity;BME280_pressure;Samples;Min_cycle;Max_cycle;Signal;HPM_P1;HPM_P2
2023/02/08 00:00:52;;;;;;;32.13;15.80;;;;;;;-2.86;74.52;96423.16;5051746;28;20202;-78
2023/02/08 00:03:19;;;;;;;21.90;12.75;;;;;;;-3.01;75.53;96420.69;5051358;28;20654;-77
2023/02/08 00:05:46;;;;;;;28.98;13.75;;;;;;;-2.96;75.98;96429.22;5051527;28;20198;-78
2023/02/08 00:08:12;;;;;;;25.10;13.82;;;;;;;-2.94;76.08;96435.19;5051996;28;20218;-78
2023/02/08 00:10:39;;;;;;;31.13;14.30;;;;;;;-3.00;76.07;96433.53;5051734;28;20223;-78
2023/02/08 00:13:06;;;;;;;20.63;12.93;;;;;;;-3.09;76.18;96433.59;5051789;28;20206;-79
2023/02/08 00:15:33;;;;;;;25.67;15.25;;;;;;;-2.99;75.43;96442.06;5051470;28;20234;-77
2023/02/08 00:18:01;;;;;;;26.05;13.48;;;;;;;-3.05;75.94;96437.00;5051730;28;20842;-78
2023/02/08 00:20:27;;;;;;;19.85;11.18;;;;;;;-3.01;76.39;96442.09;5051393;28;20206;-78
2023/02/08 00:22:54;;;;;;;22.80;12.90;;;;;;;-3.06;75.76;96448.97;5051782;28;20637;-78
2023/02/08 00:25:21;;;;;;;25.08;13.88;;;;;;;-3.08;76.34;96440.44;5051323;28;20272;-78
2023/02/08 00:27:48;;;;;;;27.70;12.48;;;;;;;-3.05;75.79;96445.56;5000083;28;20249;-78
2023/02/08 00:30:14;;;;;;;19.73;12.32;;;;;;;-3.08;76.31;96452.44;5051365;28;20207;-78
2023/02/08 00:32:41;;;;;;;19.83;11.68;;;;;;;-3.09;76.63;96454.13;5051038;28;20368;-78
2023/02/08 00:35:09;;;;;;;26.30;13.32;;;;;;;-3.06;76.67;96458.41;5051503;28;20206;-78
2023/02/08 00:37:36;;;;;;;22.95;12.25;;;;;;;-2.93;76.11;96462.56;5051249;28;20622;-78
2023/02/08 00:40:04;;;;;;;24.75;13.35;;;;;;;-2.84;75.70;96470.22;5051432;28;20206;-79
2023/02/08 00:42:31;;;;;;;25.92;14.98;;;;;;;-2.74;76.03;96471.00;5051408;28;20662;-79
2023/02/08 00:44:58;;;;;;;27.77;13.27;;;;;;;-2.76;75.80;96471.03;5051103;28;20206;-77
2023/02/08 00:47:25;;;;;;;30.45;13.88;;;;;;;-2.75;75.03;96474.44;5051021;28;20195;-77
2023/02/08 00:49:52;;;;;;;25.40;14.30;;;;;;;-2.70;75.22;96476.09;5051593;28;20199;-77
2023/02/08 00:52:20;;;;;;;21.40;12.05;;;;;;;-2.68;75.27;96476.94;5051291;28;20272;-77
2023/02/08 00:54:47;;;;;;;20.33;12.27;;;;;;;-2.72;75.19;96470.13;5054030;28;20203;-77
2023/02/08 00:57:14;;;;;;;22.52;12.13;;;;;;;-2.65;74.84;96474.34;5054642;28;20245;-77
2023/02/08 00:59:41;;;;;;;22.75;12.32;;;;;;;-2.77;74.82;96471.03;5054758;28;20305;-77
2023/02/08 01:02:08;;;;;;;26.85;12.63;;;;;;;-2.78;75.40;96470.19;5054566;28;20202;-77
2023/02/08 01:04:35;;;;;;;22.55;12.73;;;;;;;-2.76;75.12;96472.72;5054862;28;20257;-77
2023/02/08 01:07:02;;;;;;;25.83;13.15;;;;;;;-2.78;75.23;96475.31;5019764;28;20194;-77
2023/02/08 01:09:30;;;;;;;22.33;13.60;;;;;;;-2.72;75.85;96480.41;5054585;28;20268;-77
2023/02/08 01:11:57;;;;;;;24.35;12.48;;;;;;;-2.66;76.21;96480.34;5054575;28;20642;-77
2023/02/08 01:14:23;;;;;;;26.75;14.60;;;;;;;-2.50;76.12;96478.53;5054515;28;20288;-77
2023/02/08 01:16:50;;;;;;;29.95;14.88;;;;;;;-2.55;75.11;96473.41;5054830;28;20206;-77
2023/02/08 01:19:18;;;;;;;23.77;13.27;;;;;;;-2.54;75.91;96472.56;5054555;28;20400;-78
2023/02/08 01:21:44;;;;;;;28.98;15.85;;;;;;;-2.52;75.84;96473.41;5054180;28;20203;-77
2023/02/08 01:24:12;;;;;;;26.15;14.45;;;;;;;-2.59;75.64;96458.91;5054665;28;20681;-77
2023/02/08 01:26:40;;;;;;;26.48;14.48;;;;;;;-2.58;75.67;96460.59;5054492;28;20230;-77
2023/02/08 01:29:07;;;;;;;29.38;14.02;;;;;;;-2.56;75.65;96458.88;5018575;28;20198;-77
2023/02/08 01:31:36;;;;;;;29.85;13.10;;;;;;;-2.58;75.36;96457.19;5002844;28;20727;-77
2023/02/08 01:34:04;;;;;;;28.80;15.88;;;;;;;-2.55;75.80;96457.16;5054132;28;20207;-78
2023/02/08 01:36:32;;;;;;;27.85;14.45;;;;;;;-2.59;75.71;96456.34;5054268;28;20194;-77
2023/02/08 01:38:59;;;;;;;24.52;13.68;;;;;;;-2.60;75.75;96458.91;5054332;28;20202;-77
2023/02/08 01:41:28;;;;;;;25.58;13.65;;;;;;;-2.82;75.84;96464.22;5053688;28;20206;-76
2023/02/08 01:44:06;;;;;;;24.27;14.00;;;;;;;-2.92;75.55;96466.84;5054051;28;20204;-77
2023/02/08 01:46:34;;;;;;;28.63;15.13;;;;;;;-2.96;76.54;96465.16;5054182;28;20648;-77
2023/02/08 01:49:04;;;;;;;32.45;15.40;;;;;;;-2.95;77.37;96466.88;5018644;28;20268;-76
2023/02/08 01:51:34;;;;;;;29.27;14.98;;;;;;;-2.95;77.68;96469.44;5053511;28;20701;-76
2023/02/08 01:54:05;;;;;;;23.23;12.63;;;;;;;-2.99;77.63;96466.03;5053888;28;20237;-77
2023/02/08 01:56:36;;;;;;;22.70;12.80;;;;;;;-2.90;77.79;96476.25;5053759;28;20310;-78
2023/02/08 01:59:08;;;;;;;34.25;15.75;;;;;;;-2.84;77.46;96473.66;5053650;28;20206;-77
2023/02/08 02:01:36;;;;;;;27.35;14.88;;;;;;;-2.79;77.76;96480.47;5053863;28;20206;-77
2023/02/08 02:04:04;;;;;;;25.65;15.05;;;;;;;-2.68;77.67;96481.22;5035107;28;20199;-77
2023/02/08 02:06:34;;;;;;;21.60;13.25;;;;;;;-2.63;76.81;96485.47;5052238;28;20199;-77
2023/02/08 02:09:10;;;;;;;21.25;13.70;;;;;;;-2.64;76.94;96488.88;5053752;28;20199;-76
2023/02/08 02:11:37;;;;;;;28.00;15.00;;;;;;;-2.62;77.15;96484.59;5053751;28;20279;-77
2023/02/08 02:14:06;;;;;;;31.75;13.95;;;;;;;-2.74;77.33;96491.56;5053425;28;20617;-76
2023/02/08 02:16:33;;;;;;;22.17;12.90;;;;;;;-2.71;78.07;96492.38;5053667;28;20199;-77
2023/02/08 02:18:59;;;;;;;30.67;15.52;;;;;;;-2.60;77.55;96494.88;5053611;28;20284;-77
2023/02/08 02:21:41;;;;;;;28.30;15.40;;;;;;;-2.60;76.90;96498.31;5053391;28;20241;-77
2023/02/08 02:24:28;;;;;;;26.90;14.02;;;;;;;-2.67;77.71;96499.19;5001523;28;20280;-77
2023/02/08 02:27:22;;;;;;;26.58;14.60;;;;;;;-2.76;77.54;96494.13;5053307;28;20299;-77
2023/02/08 02:30:24;;;;;;;30.85;13.73;;;;;;;-2.77;77.66;96502.72;4952872;29;20658;-76
2023/02/08 02:33:22;;;;;;;27.40;14.50;;;;;;;-2.83;78.46;96501.03;4952710;29;20229;-77
2023/02/08 02:35:56;;;;;;;25.45;14.63;;;;;;;-2.84;78.34;96499.34;4952745;29;20262;-77
2023/02/08 02:38:34;;;;;;;33.80;15.95;;;;;;;-2.75;78.97;96503.53;4952847;29;20206;-77
2023/02/08 02:41:11;;;;;;;31.48;14.98;;;;;;;-2.74;78.87;96507.81;4936350;29;20210;-77
2023/02/08 02:43:45;;;;;;;26.98;15.98;;;;;;;-2.78;78.88;96501.00;4952560;29;20298;-77
2023/02/08 02:46:26;;;;;;;29.52;13.73;;;;;;;-2.82;78.04;96504.47;4952707;29;20886;-77
2023/02/08 02:49:02;;;;;;;22.35;13.13;;;;;;;-3.00;79.06;96494.28;4952415;29;20205;-77
2023/02/08 02:51:38;;;;;;;23.92;14.02;;;;;;;-2.91;79.32;96505.34;4952448;29;20206;-77
2023/02/08 02:54:11;;;;;;;25.80;14.05;;;;;;;-2.97;79.08;96494.28;4952425;29;20631;-77
2023/02/08 02:56:41;;;;;;;18.70;11.88;;;;;;;-2.88;79.19;96504.50;4920081;29;20268;-76
2023/02/08 02:59:11;;;;;;;25.50;14.80;;;;;;;-2.81;79.32;96506.16;4952194;29;20202;-77
2023/02/08 03:01:38;;;;;;;30.25;17.48;;;;;;;-2.77;79.80;96505.28;4952329;29;20673;-76
2023/02/08 03:04:14;;;;;;;38.38;19.17;;;;;;;-2.85;80.55;96507.06;4952238;29;20210;-77
2023/02/08 03:06:58;;;;;;;39.38;21.13;;;;;;;-2.91;82.49;96512.19;4984151;28;20656;-77
2023/02/08 03:09:46;;;;;;;47.58;21.88;;;;;;;-2.90;82.64;96511.34;5017030;28;20191;-75
2023/02/08 03:12:29;;;;;;;45.60;24.48;;;;;;;-2.93;83.47;96499.38;5052443;28;20226;-77
2023/02/08 03:15:03;;;;;;;42.08;21.70;;;;;;;-2.85;83.56;96514.75;5052168;28;20262;-77
2023/02/08 03:17:49;;;;;;;38.90;20.75;;;;;;;-2.95;84.57;96519.06;5051544;28;20676;-77
2023/02/08 03:20:24;;;;;;;48.78;22.20;;;;;;;-2.88;84.77;96519.91;5051968;28;20202;-76
2023/02/08 03:22:59;;;;;;;44.85;21.92;;;;;;;-2.93;83.89;96516.50;5052197;28;20661;-77
2023/02/08 03:25:33;;;;;;;36.85;20.45;;;;;;;-3.08;83.96;96514.03;5051861;28;20241;-77
2023/02/08 03:28:07;;;;;;;40.67;21.00;;;;;;;-3.01;84.42;96521.69;5052263;28;20199;-76
2023/02/08 03:30:45;;;;;;;40.97;22.05;;;;;;;-3.05;84.22;96516.59;5017042;28;20195;-77
2023/02/08 03:33:18;;;;;;;51.90;21.67;;;;;;;-3.10;83.46;96513.19;5052194;28;20313;-77
2023/02/08 03:35:56;;;;;;;40.45;20.33;;;;;;;-3.20;84.36;96520.94;5051879;28;20211;-77
2023/02/08 03:38:28;;;;;;;40.28;20.00;;;;;;;-3.14;84.51;96522.63;5052332;28;20208;-77
2023/02/08 03:40:59;;;;;;;32.35;18.63;;;;;;;-3.03;83.90;96525.97;5052108;28;20225;-76
2023/02/08 03:43:31;;;;;;;35.85;20.75;;;;;;;-3.16;84.18;96520.06;5052211;28;20214;-77
2023/02/08 03:46:05;;;;;;;43.40;20.10;;;;;;;-3.14;84.15;96527.78;5051805;28;20203;-77
2023/02/08 03:48:36;;;;;;;47.47;20.60;;;;;;;-3.29;85.08;96528.69;5051799;28;20617;-77
2023/02/08 03:51:06;;;;;;;40.83;20.25;;;;;;;-3.41;85.61;96531.31;5051503;28;20214;-78
2023/02/08 03:53:37;;;;;;;39.50;20.67;;;;;;;-3.49;85.38;96535.59;5017238;28;20280;-76
2023/02/08 03:56:09;;;;;;;41.30;18.65;;;;;;;-3.71;86.53;96537.41;5041611;28;20230;-77
2023/02/08 03:58:42;;;;;;;41.60;21.33;;;;;;;-3.58;86.24;96538.22;5041270;28;20207;-76
2023/02/08 04:01:16;;;;;;;33.47;19.90;;;;;;;-3.50;85.66;96533.91;5032232;28;20206;-76
2023/02/08 04:03:47;;;;;;;46.67;21.50;;;;;;;-3.48;85.58;96529.63;5003100;28;20200;-77
2023/02/08 04:06:16;;;;;;;42.33;19.52;;;;;;;-3.53;86.41;96534.78;5051042;28;20202;-77
2023/02/08 04:08:43;;;;;;;42.40;22.70;;;;;;;-3.51;86.65;96534.75;5051343;28;20216;-77
2023/02/08 04:11:10;;;;;;;44.63;22.83;;;;;;;-3.51;87.04;96542.47;5047162;28;20199;-77
2023/02/08 04:13:37;;;;;;;46.80;23.30;;;;;;;-3.59;86.81;96534.78;5030475;28;20223;-77
2023/02/08 04:16:04;;;;;;;56.60;24.83;;;;;;;-3.51;87.19;96532.19;5030727;28;20207;-77
2023/02/08 04:18:31;;;;;;;48.63;23.55;;;;;;;-3.63;87.50;96539.94;5005670;28;20199;-78
2023/02/08 04:20:57;;;;;;;51.65;24.38;;;;;;;-3.61;87.68;96533.09;5039393;28;20203;-77
2023/02/08 04:23:26;;;;;;;44.95;23.63;;;;;;;-3.51;89.53;96551.00;5031064;28;20333;-77
2023/02/08 04:25:52;;;;;;;48.55;26.55;;;;;;;-3.45;88.27;96550.16;5040907;28;20296;-77
2023/02/08 04:28:19;;;;;;;51.75;26.35;;;;;;;-3.37;87.65;96547.56;5036794;28;20642;-77
2023/02/08 04:30:46;;;;;;;53.78;27.38;;;;;;;-3.29;86.46;96551.78;5050032;28;20257;-77
2023/02/08 04:33:13;;;;;;;59.30;29.80;;;;;;;-3.14;86.73;96556.84;4994661;28;20471;-77
2023/02/08 04:35:40;;;;;;;55.78;27.15;;;;;;;-3.01;85.78;96555.06;5043213;28;20204;-77
2023/02/08 04:38:07;;;;;;;47.25;24.80;;;;;;;-2.92;85.06;96559.28;5043568;28;20257;-77
2023/02/08 04:40:35;;;;;;;48.17;25.70;;;;;;;-2.90;83.90;96555.00;5043222;28;20257;-77
2023/02/08 04:43:02;;;;;;;55.25;26.80;;;;;;;-2.82;82.72;96560.97;5018397;28;20260;-79
2023/02/08 04:45:30;;;;;;;53.60;25.33;;;;;;;-2.80;82.74;96561.81;5047328;28;20273;-77
2023/02/08 04:47:57;;;;;;;52.22;25.30;;;;;;;-2.79;82.84;96560.94;5033658;28;20210;-78
2023/02/08 04:50:24;;;;;;;37.03;22.58;;;;;;;-2.76;82.06;96560.06;5036268;28;20211;-77
2023/02/08 04:52:52;;;;;;;40.40;20.75;;;;;;;-2.83;81.47;96560.13;5042685;28;20310;-77
2023/02/08 04:55:18;;;;;;;51.55;21.15;;;;;;;-2.83;80.91;96572.09;5043723;28;20207;-77
2023/02/08 04:57:46;;;;;;;41.85;23.80;;;;;;;-2.85;80.40;96576.41;5044130;28;20556;-77
2023/02/08 05:00:14;;;;;;;51.97;24.13;;;;;;;-2.88;80.76;96587.53;5037811;28;20229;-77
2023/02/08 05:02:41;;;;;;;44.65;21.77;;;;;;;-2.91;80.71;96596.94;5007108;28;20637;-77
2023/02/08 05:05:08;;;;;;;45.80;22.08;;;;;;;-2.93;80.61;96593.53;5051294;28;20256;-77
2023/02/08 05:07:35;;;;;;;42.30;22.30;;;;;;;-2.94;81.36;96597.81;5034064;28;20273;-76
2023/02/08 05:10:02;;;;;;;39.70;22.20;;;;;;;-3.34;81.99;96604.84;5040457;28;20252;-77
2023/02/08 05:12:28;;;;;;;46.45;23.30;;;;;;;-3.53;82.82;96616.88;5043016;28;20601;-79
2023/02/08 05:14:57;;;;;;;45.10;22.67;;;;;;;-3.33;82.30;96615.97;5033118;28;20760;-79
2023/02/08 05:17:23;;;;;;;33.72;20.92;;;;;;;-3.26;81.74;96621.06;5046233;28;20207;-78
2023/02/08 05:19:50;;;;;;;41.42;23.05;;;;;;;-3.18;81.26;96618.47;5046710;28;20199;-78
2023/02/08 05:22:17;;;;;;;50.33;25.00;;;;;;;-3.13;81.71;96609.91;5039401;28;20207;-78
2023/02/08 05:24:44;;;;;;;41.63;23.52;;;;;;;-3.08;81.14;96624.44;5044582;28;20234;-78
2023/02/08 05:27:10;;;;;;;42.47;20.95;;;;;;;-3.02;81.26;96609.00;5048465;28;20233;-78
2023/02/08 05:29:37;;;;;;;44.88;23.20;;;;;;;-2.95;80.77;96613.25;5052234;28;20206;-77
2023/02/08 05:32:05;;;;;;;63.75;27.90;;;;;;;-2.87;80.49;96608.94;5041695;28;20199;-77
2023/02/08 05:34:32;;;;;;;95.40;35.97;;;;;;;-2.85;80.20;96613.22;4999623;28;20204;-77
2023/02/08 05:36:59;;;;;;;69.28;32.97;;;;;;;-2.83;79.78;96618.34;5046617;28;20199;-78
2023/02/08 05:39:26;;;;;;;61.03;31.20;;;;;;;-2.83;80.01;96619.19;4997065;28;20282;-78
2023/02/08 05:41:53;;;;;;;63.83;27.17;;;;;;;-2.81;79.70;96630.31;5043742;28;20208;-78
2023/02/08 05:44:19;;;;;;;77.15;31.20;;;;;;;-2.84;79.89;96637.19;5032469;28;20253;-78
2023/02/08 05:46:46;;;;;;;56.28;26.70;;;;;;;-2.95;80.09;96642.34;5043422;28;20206;-79
2023/02/08 05:49:14;;;;;;;65.00;27.85;;;;;;;-2.96;80.29;96644.91;5050352;28;20696;-76
2023/02/08 05:51:41;;;;;;;60.33;29.20;;;;;;;-2.96;80.32;96648.34;5042784;28;20203;-78
2023/02/08 05:54:08;;;;;;;63.33;29.90;;;;;;;-2.95;80.60;96641.47;5032521;28;20277;-78
2023/02/08 05:56:35;;;;;;;56.05;30.65;;;;;;;-2.89;79.83;96639.78;5038432;28;20260;-78
2023/02/08 05:59:05;;;;;;;50.80;25.88;;;;;;;-2.92;79.56;96631.19;5049941;28;20191;-78
2023/02/08 06:01:31;;;;;;;60.15;27.80;;;;;;;-2.91;79.08;96640.59;5034138;28;20206;-78
2023/02/08 06:03:59;;;;;;;50.22;27.98;;;;;;;-2.92;78.73;96636.34;5042152;28;20211;-78
2023/02/08 06:06:27;;;;;;;57.45;28.95;;;;;;;-2.93;78.16;96640.63;5013179;28;20294;-78
2023/02/08 06:08:54;;;;;;;51.22;27.55;;;;;;;-2.89;78.04;96633.75;5034274;28;20211;-77
2023/02/08 06:11:21;;;;;;;54.63;28.33;;;;;;;-2.87;78.94;96629.50;5033824;28;20257;-78
2023/02/08 06:13:48;;;;;;;51.25;26.92;;;;;;;-2.82;79.21;96632.88;5043242;28;20230;-76
2023/02/08 06:16:15;;;;;;;54.28;27.90;;;;;;;-2.79;78.97;96632.88;5042575;28;20203;-78
2023/02/08 06:18:42;;;;;;;65.50;31.52;;;;;;;-2.73;78.75;96634.53;5043475;28;20836;-77
2023/02/08 06:21:11;;;;;;;51.70;30.42;;;;;;;-2.67;79.06;96631.94;5034358;28;20265;-77
2023/02/08 06:23:40;;;;;;;74.90;33.03;;;;;;;-2.71;78.70;96636.25;5039091;28;20195;-79
2023/02/08 06:26:06;;;;;;;64.18;28.65;;;;;;;-2.72;79.10;96644.81;5041016;28;20250;-78
2023/02/08 06:28:33;;;;;;;60.97;31.40;;;;;;;-2.63;78.73;96643.91;5037408;28;20217;-77
2023/02/08 06:31:00;;;;;;;57.45;27.35;;;;;;;-2.57;78.65;96639.59;5033645;28;20199;-77
2023/02/08 06:33:26;;;;;;;61.83;29.08;;;;;;;-2.36;79.37;96646.31;5041706;28;20238;-78
2023/02/08 06:35:54;;;;;;;45.83;26.10;;;;;;;-1.78;78.26;96651.03;5050015;28;20207;-76
2023/02/08 06:38:21;;;;;;;49.60;26.27;;;;;;;-1.16;76.41;96643.56;5033201;28;20230;-77
2023/02/08 06:40:50;;;;;;;58.33;27.02;;;;;;;-0.42;73.53;96659.81;5047904;28;20217;-79
2023/02/08 06:43:17;;;;;;;50.03;26.95;;;;;;;0.12;70.57;96654.75;5031740;28;20257;-78
2023/02/08 06:45:45;;;;;;;41.17;26.20;;;;;;;0.27;67.67;96657.06;5041114;28;20684;-77
2023/02/08 06:48:12;;;;;;;51.10;27.25;;;;;;;0.16;66.92;96658.97;5040460;28;20199;-78
2023/02/08 06:50:38;;;;;;;47.72;25.48;;;;;;;0.15;66.50;96652.97;5039272;28;20204;-77
2023/02/08 06:53:05;;;;;;;50.15;25.02;;;;;;;0.11;66.20;96658.19;5048948;28;20226;-76
2023/02/08 06:55:32;;;;;;;40.22;25.05;;;;;;;-0.04;66.76;96660.13;5014787;28;20211;-77
2023/02/08 06:58:00;;;;;;;40.17;23.60;;;;;;;-0.12;67.28;96667.13;4998028;28;20593;-78
2023/02/08 07:00:27;;;;;;;44.40;24.63;;;;;;;-0.22;67.40;96668.16;5033122;28;20262;-78
2023/02/08 07:02:54;;;;;;;51.05;28.60;;;;;;;-0.01;69.02;96666.97;5033510;28;20211;-78
2023/02/08 07:05:21;;;;;;;73.70;42.67;;;;;;;0.30;68.26;96664.78;5032657;28;20207;-77
2023/02/08 07:07:48;;;;;;;46.83;24.00;;;;;;;0.54;67.80;96664.34;5032363;28;20236;-75
2023/02/08 07:10:15;;;;;;;38.13;21.50;;;;;;;0.83;67.07;96663.84;5031982;28;20617;-76
2023/02/08 07:12:42;;;;;;;40.53;23.80;;;;;;;1.13;65.82;96662.41;5042307;28;20311;-76
2023/02/08 07:15:12;;;;;;;41.85;23.30;;;;;;;1.39;64.24;96663.63;5032513;28;20199;-77
2023/02/08 07:17:39;;;;;;;74.18;36.15;;;;;;;1.42;63.20;96667.00;5038985;28;20625;-77
2023/02/08 07:20:06;;;;;;;59.33;30.38;;;;;;;1.30;63.15;96676.75;5042152;28;20204;-77
2023/02/08 07:22:33;;;;;;;45.60;25.23;;;;;;;1.22;63.20;96679.50;5007541;28;20261;-77
2023/02/08 07:24:59;;;;;;;42.95;26.50;;;;;;;1.29;62.86;96693.16;5031232;28;20207;-76
2023/02/08 07:27:26;;;;;;;52.78;31.98;;;;;;;0.44;65.43;96701.56;5033713;28;20195;-77
2023/02/08 07:29:53;;;;;;;66.30;31.88;;;;;;;-0.41;68.83;96689.91;5040077;28;20203;-76
2023/02/08 07:32:21;;;;;;;61.50;33.85;;;;;;;-0.82;70.80;96700.72;5040776;28;20227;-76
2023/02/08 07:34:48;;;;;;;65.68;31.38;;;;;;;-0.63;71.05;96703.06;5038698;28;20223;-76
2023/02/08 07:37:15;;;;;;;49.55;26.67;;;;;;;-1.28;72.12;96712.34;5018043;28;20195;-76
2023/02/08 07:39:42;;;;;;;49.78;27.42;;;;;;;-1.46;73.90;96702.22;5038855;28;20207;-76
2023/02/08 07:42:09;;;;;;;52.85;29.73;;;;;;;-1.50;74.32;96697.97;5048101;28;20731;-77
2023/02/08 07:44:37;;;;;;;57.75;29.45;;;;;;;-1.60;74.65;96704.91;5039516;28;20200;-77
2023/02/08 07:47:04;;;;;;;56.90;28.40;;;;;;;-1.63;74.75;96702.38;5040404;28;20602;-76
2023/02/08 07:49:32;;;;;;;53.58;27.73;;;;;;;-2.06;75.45;96698.41;5031023;28;20200;-76
2023/02/08 07:52:00;;;;;;;58.97;28.27;;;;;;;-2.12;76.24;96698.44;5039803;28;20269;-76
2023/02/08 07:54:26;;;;;;;48.38;29.25;;;;;;;-2.15;76.88;96694.19;5038756;28;20707;-76
2023/02/08 07:56:53;;;;;;;56.75;27.42;;;;;;;-1.99;76.11;96698.38;5035684;28;20619;-76
2023/02/08 07:59:20;;;;;;;53.63;28.70;;;;;;;-1.83;75.94;96700.81;5047789;28;20253;-76
2023/02/08 08:01:47;;;;;;;76.20;34.30;;;;;;;-1.59;75.29;96692.91;5035408;28;20203;-76
2023/02/08 08:04:14;;;;;;;65.60;29.05;;;;;;;-1.32;75.04;96695.22;5041518;28;20606;-75
2023/02/08 08:06:42;;;;;;;60.53;30.13;;;;;;;-1.05;74.86;96696.69;5030999;28;20228;-75
2023/02/08 08:09:08;;;;;;;59.90;29.30;;;;;;;-0.74;74.44;96694.59;5048195;28;20221;-76
2023/02/08 08:11:35;;;;;;;61.75;28.88;;;;;;;-0.55;73.28;96697.81;5031676;28;20548;-76
2023/02/08 08:14:02;;;;;;;54.65;29.85;;;;;;;-0.47;71.66;96685.69;4993695;28;20740;-76
2023/02/08 08:16:32;;;;;;;53.95;27.67;;;;;;;-0.26;70.88;96684.56;4989052;28;20554;-75
2023/02/08 08:18:58;;;;;;;63.25;33.38;;;;;;;-0.05;71.19;96689.38;5030200;28;20206;-79
2023/02/08 08:21:25;;;;;;;75.22;33.20;;;;;;;0.12;69.53;96689.16;5030297;28;20211;-79
2023/02/08 08:23:54;;;;;;;64.15;33.67;;;;;;;0.27;68.98;96682.88;4986526;28;20210;-76
2023/02/08 08:26:22;;;;;;;58.53;32.07;;;;;;;0.37;67.79;96699.09;4954445;28;1145657;-77
2023/02/08 08:28:49;;;;;;;69.93;31.17;;;;;;;0.38;66.80;96701.66;4996738;28;20236;-77
2023/02/08 08:31:18;;;;;;;62.17;32.95;;;;;;;0.48;67.46;96702.34;5049225;28;20256;-77
2023/02/08 08:33:44;;;;;;;58.25;28.92;;;;;;;0.60;67.32;96697.84;5050146;28;20292;-77
2023/02/08 08:36:11;;;;;;;50.35;32.42;;;;;;;0.76;66.49;96698.41;5050230;28;20199;-77
2023/02/08 08:38:39;;;;;;;52.70;28.80;;;;;;;0.68;65.17;96702.03;5035657;28;20613;-77
2023/02/08 08:41:19;;;;;;;52.78;30.38;;;;;;;0.50;65.83;96701.44;5031379;28;20207;-77
2023/02/08 08:43:46;;;;;;;43.80;23.95;;;;;;;0.25;65.43;96697.53;5033080;28;20207;-77
2023/02/08 08:46:13;;;;;;;54.50;27.92;;;;;;;0.09;65.09;96696.09;5039031;28;20661;-77
2023/02/08 08:48:40;;;;;;;48.72;28.02;;;;;;;0.14;65.90;96705.47;5030834;28;20204;-77
2023/02/08 08:51:07;;;;;;;43.72;24.55;;;;;;;0.19;63.98;96703.66;4995773;28;20211;-77
2023/02/08 08:53:35;;;;;;;45.13;23.08;;;;;;;0.28;63.24;96710.41;5030793;28;20228;-77
2023/02/08 08:56:03;;;;;;;49.72;26.92;;;;;;;0.34;63.94;96717.22;5029799;28;20207;-77
2023/02/08 08:58:31;;;;;;;48.38;27.02;;;;;;;0.14;64.41;96722.69;5031493;28;20196;-77
2023/02/08 09:00:58;;;;;;;39.95;19.25;;;;;;;-0.30;63.23;96716.38;5030843;28;20207;-76
2023/02/08 09:03:25;;;;;;;33.72;19.50;;;;;;;-0.05;64.21;96722.94;5031003;28;20286;-77
2023/02/08 09:05:52;;;;;;;55.22;27.30;;;;;;;0.24;64.38;96730.25;5039513;28;20216;-77
2023/02/08 09:08:19;;;;;;;43.95;22.65;;;;;;;0.34;64.26;96725.81;5037457;28;20631;-76
2023/02/08 09:10:46;;;;;;;37.90;22.80;;;;;;;0.43;63.75;96743.75;5041000;28;20212;-76
2023/02/08 09:13:18;;;;;;;36.40;21.45;;;;;;;0.15;62.67;96739.88;5043120;28;20254;-76
2023/02/08 09:15:47;;;;;;;36.65;19.23;;;;;;;0.48;62.71;96736.78;5038818;28;20213;-76
2023/02/08 09:18:13;;;;;;;35.40;22.10;;;;;;;0.56;63.71;96734.91;5038749;28;20277;-77
2023/02/08 09:20:40;;;;;;;40.90;23.95;;;;;;;0.45;63.36;96733.38;5000921;28;20209;-77
2023/02/08 09:23:07;;;;;;;34.25;18.98;;;;;;;0.30;62.68;96744.81;5042076;28;20208;-77
2023/02/08 09:25:35;;;;;;;53.33;22.75;;;;;;;0.64;63.29;96749.47;5042442;28;20235;-76
2023/02/08 09:28:02;;;;;;;20.48;12.23;;;;;;;0.48;58.84;96749.69;5053453;28;20203;-77
2023/02/08 09:30:29;;;;;;;20.15;11.65;;;;;;;0.50;57.98;96747.94;4998640;28;20269;-77
2023/02/08 09:32:57;;;;;;;30.65;17.73;;;;;;;0.66;60.40;96745.97;5032588;28;20257;-77
2023/02/08 09:35:24;;;;;;;33.42;17.10;;;;;;;0.45;59.42;96741.13;5031965;28;20243;-77
2023/02/08 09:37:54;;;;;;;33.50;18.85;;;;;;;0.64;61.45;96739.13;5032367;28;20195;-76
2023/02/08 09:40:24;;;;;;;30.38;17.58;;;;;;;0.77;60.25;96740.63;5033102;28;20196;-77
2023/02/08 09:43:02;;;;;;;38.28;17.88;;;;;;;1.03;60.46;96741.00;5032832;28;20212;-77
2023/02/08 09:45:51;;;;;;;33.83;20.00;;;;;;;0.88;59.33;96741.31;5035431;28;20207;-76
2023/02/08 09:48:23;;;;;;;31.05;17.95;;;;;;;0.70;60.16;96728.69;5038319;28;20550;-76
2023/02/08 09:50:54;;;;;;;34.55;17.40;;;;;;;0.86;60.74;96727.53;5034422;28;20643;-76
2023/02/08 09:53:25;;;;;;;34.35;18.48;;;;;;;1.00;60.79;96729.88;5034924;28;20211;-77
2023/02/08 09:55:55;;;;;;;25.15;14.98;;;;;;;0.82;59.68;96734.47;5044491;28;20208;-79
2023/02/08 09:58:26;;;;;;;28.33;17.27;;;;;;;0.72;61.14;96730.34;5047383;28;20202;-76
2023/02/08 10:00:55;;;;;;;33.58;19.13;;;;;;;0.88;60.88;96736.13;5042836;28;20641;-77
2023/02/08 10:03:31;;;;;;;37.13;19.80;;;;;;;0.96;60.54;96731.69;5052521;28;20191;-77
2023/02/08 10:05:58;;;;;;;29.63;17.15;;;;;;;0.87;59.64;96731.84;5038597;28;20289;-78
2023/02/08 10:08:28;;;;;;;32.58;17.73;;;;;;;0.88;60.94;96724.06;5050189;28;20199;-77
2023/02/08 10:11:02;;;;;;;27.60;16.35;;;;;;;1.04;59.95;96719.47;5049758;28;20206;-79
2023/02/08 10:13:55;;;;;;;35.97;18.80;;;;;;;0.71;59.88;96725.22;5051235;28;20502;-77
2023/02/08 10:16:43;;;;;;;31.95;17.60;;;;;;;0.78;59.94;96712.16;5035889;28;20212;-77
2023/02/08 10:19:23;;;;;;;27.77;18.27;;;;;;;1.00;60.07;96715.22;5040981;28;20199;-77
2023/02/08 10:22:03;;;;;;;33.70;17.15;;;;;;;1.21;58.84;96712.25;5046283;28;20224;-77
2023/02/08 10:24:46;;;;;;;29.77;15.48;;;;;;;1.20;58.40;96713.13;5051748;28;20271;-78
2023/02/08 10:27:16;;;;;;;28.75;15.48;;;;;;;0.99;58.44;96718.69;5041848;28;20237;-78
2023/02/08 10:30:28;;;;;;;23.08;15.02;;;;;;;1.23;58.69;96717.41;5052448;28;20203;-77
2023/02/08 10:33:00;;;;;;;24.88;14.13;;;;;;;1.16;57.53;96720.97;4989912;28;20208;-77
2023/02/08 10:35:35;;;;;;;22.45;12.85;;;;;;;1.18;56.07;96722.66;4971985;28;20280;-78
2023/02/08 10:38:17;;;;;;;29.10;15.95;;;;;;;1.08;56.77;96720.25;4978440;28;20205;-78
2023/02/08 10:40:47;;;;;;;25.42;14.57;;;;;;;0.85;58.91;96723.22;4988332;28;20830;-77
2023/02/08 10:43:22;;;;;;;26.45;14.80;;;;;;;1.01;59.53;96719.50;4989557;28;20205;-77
2023/02/08 10:45:54;;;;;;;23.20;13.00;;;;;;;1.10;57.34;96718.50;4990842;28;20216;-78
2023/02/08 10:48:31;;;;;;;25.65;11.07;;;;;;;0.45;58.01;96716.16;4989466;28;20208;-77
2023/02/08 10:50:59;;;;;;;22.50;12.10;;;;;;;0.45;59.40;96718.75;4989651;28;20197;-78
2023/02/08 10:53:26;;;;;;;22.10;13.02;;;;;;;0.24;59.31;96721.66;4988600;28;20205;-78
2023/02/08 10:55:53;;;;;;;21.45;12.65;;;;;;;0.47;57.07;96719.56;4980184;28;20376;-77
2023/02/08 10:58:24;;;;;;;20.85;11.82;;;;;;;0.38;58.09;96718.88;4988433;28;20201;-77
2023/02/08 11:00:51;;;;;;;20.35;12.40;;;;;;;0.10;60.09;96713.28;4985887;28;20615;-78
2023/02/08 11:03:21;;;;;;;32.90;13.35;;;;;;;0.12;60.42;96727.00;4986518;28;20283;-78
2023/02/08 11:05:49;;;;;;;24.00;13.68;;;;;;;-0.03;60.51;96721.19;4985268;28;20611;-78
2023/02/08 11:08:20;;;;;;;16.33;10.75;;;;;;;-0.36;60.99;96721.63;4947457;28;20201;-78
2023/02/08 11:10:57;;;;;;;20.77;12.80;;;;;;;-0.16;61.96;96722.22;5033831;28;20594;-78
2023/02/08 11:13:26;;;;;;;20.48;10.05;;;;;;;0.07;61.63;96723.66;5046933;28;20211;-78
2023/02/08 11:15:56;;;;;;;21.90;12.57;;;;;;;-0.27;61.25;96721.53;4996449;28;20219;-78
2023/02/08 11:18:25;;;;;;;27.48;13.68;;;;;;;-0.42;62.50;96721.72;5031378;28;20622;-76
2023/02/08 11:20:55;;;;;;;22.45;14.10;;;;;;;-0.46;62.24;96718.31;5031578;28;20207;-77
2023/02/08 11:23:26;;;;;;;25.88;14.32;;;;;;;-0.14;62.05;96722.22;5040333;28;20268;-77
2023/02/08 11:25:54;;;;;;;25.30;15.07;;;;;;;-0.15;61.51;96721.34;5041146;28;20243;-78
2023/02/08 11:28:28;;;;;;;25.15;13.68;;;;;;;-0.21;61.82;96713.72;5031749;28;20665;-77
2023/02/08 11:31:00;;;;;;;21.20;12.75;;;;;;;-0.05;61.30;96720.34;5040756;28;20218;-78